createdAt,value
2019-05-15T00:02:19.823Z,94813.58
2019-05-15T00:04:53.076Z,94794.52
2019-05-15T00:07:23.426Z,94797.44
2019-05-15T00:09:53.789Z,94758.75
2019-05-15T00:12:28.479Z,94750.28
2019-05-15T00:15:01.124Z,94716.45
2019-05-15T00:17:31.440Z,94706.88
2019-05-15T00:20:02.106Z,94697.12
2019-05-15T00:22:32.374Z,94697.12
2019-05-15T00:25:08.997Z,94684.91
2019-05-15T00:27:39.061Z,94719.07
2019-05-15T00:30:13.113Z,94747.67
2019-05-15T00:32:43.419Z,94740.02
2019-05-15T00:35:14.070Z,94719.19
2019-05-15T00:37:44.683Z,94722.98
2019-05-15T00:40:15.236Z,94721.19
2019-05-15T00:42:48.617Z,94716.53
2019-05-15T00:45:18.735Z,94687.33
2019-05-15T00:47:49.388Z,94666.69
2019-05-15T00:50:20.757Z,94644.43
2019-05-15T00:52:52.667Z,94658.23
2019-05-15T00:55:23.330Z,94750.59
2019-05-15T00:57:54.754Z,94725.41
2019-05-15T01:00:40.590Z,94678.06
2019-05-15T01:03:12.301Z,94638.09
2019-05-15T01:05:43.326Z,94626.52
2019-05-15T01:08:13.609Z,94674.33
2019-05-15T01:10:43.996Z,94694.50
2019-05-15T01:13:14.273Z,94654.00
2019-05-15T01:15:44.698Z,94630.95
2019-05-15T01:18:15.840Z,94628.03
2019-05-15T01:20:46.270Z,94595.83
2019-05-15T01:23:18.734Z,94573.55
2019-05-15T01:25:49.381Z,94571.14
2019-05-15T01:28:38.568Z,94557.35
2019-05-15T01:31:08.842Z,94540.65
2019-05-15T01:33:39.590Z,94611.81
2019-05-15T01:36:11.124Z,94611.81
2019-05-15T01:38:42.214Z,94689.13
2019-05-15T01:41:13.867Z,94658.23
2019-05-15T01:43:44.110Z,94632.86
2019-05-15T01:46:14.750Z,94600.75
2019-05-15T01:48:45.553Z,94600.75
2019-05-15T01:51:18.354Z,94564.30
2019-05-15T01:53:48.223Z,94541.95
2019-05-15T01:56:18.935Z,94527.67
2019-05-15T01:58:49.367Z,94504.94
2019-05-15T02:01:19.715Z,94493.23
2019-05-15T02:03:50.007Z,94533.20
2019-05-15T02:06:20.700Z,94523.75
2019-05-15T02:08:51.385Z,94506.24
2019-05-15T02:11:22.015Z,94506.24
2019-05-15T02:13:53.621Z,94479.57
2019-05-15T02:16:23.892Z,94457.65
2019-05-15T02:18:58.250Z,94449.70
2019-05-15T02:21:29.040Z,94449.70
2019-05-15T02:23:59.735Z,94432.52
2019-05-15T02:26:30.762Z,94413.91
2019-05-15T02:29:01.667Z,94391.30
2019-05-15T02:31:32.217Z,94391.30
2019-05-15T02:34:02.520Z,94375.89
2019-05-15T02:36:32.884Z,94373.28
2019-05-15T02:39:04.515Z,94365.64
2019-05-15T02:41:34.797Z,94378.95
2019-05-15T02:44:05.414Z,94369.37
2019-05-15T02:46:39.219Z,94369.37
2019-05-15T02:49:09.127Z,94370.87
2019-05-15T02:51:40.225Z,94359.20
2019-05-15T02:54:10.771Z,94348.47
2019-05-15T02:56:41.076Z,94391.80
2019-05-15T02:59:11.402Z,94391.80
2019-05-15T03:01:42.018Z,94395.22
2019-05-15T03:04:12.704Z,94419.55
2019-05-15T03:06:42.980Z,94459.16
2019-05-15T03:09:13.315Z,94483.48
2019-05-15T03:11:43.629Z,94502.02
2019-05-15T03:14:13.908Z,94509.66
2019-05-15T03:16:45.781Z,94522.33
2019-05-15T03:19:18.716Z,94537.73
2019-05-15T03:21:49.691Z,94566.00
2019-05-15T03:24:20.470Z,94587.73
2019-05-15T03:26:52.186Z,94640.59
2019-05-15T03:29:22.477Z,94640.59
2019-05-15T03:32:13.476Z,94662.84
2019-05-15T03:34:30.991Z,94697.16
2019-05-15T03:37:03.521Z,94732.76
2019-05-15T03:39:31.806Z,94792.28
2019-05-15T03:42:02.070Z,94836.55
2019-05-15T03:44:32.332Z,94872.64
2019-05-15T03:47:02.665Z,94916.59
2019-05-15T03:49:32.933Z,94968.05
2019-05-15T03:52:10.003Z,95004.98
2019-05-15T03:54:40.179Z,95056.80
2019-05-15T03:57:10.454Z,95108.45
2019-05-15T03:59:40.784Z,95162.92
2019-05-15T04:02:11.404Z,95217.05
2019-05-15T04:04:41.706Z,95272.85
2019-05-15T04:07:14.122Z,95327.34
2019-05-15T04:09:44.377Z,95396.60
2019-05-15T04:12:14.665Z,95455.22
2019-05-15T04:14:45.085Z,95511.88
2019-05-15T04:17:19.537Z,95562.54
2019-05-15T04:19:49.715Z,95620.56
2019-05-15T04:22:21.288Z,95692.20
2019-05-15T04:24:52.535Z,95777.77
2019-05-15T04:27:24.227Z,95889.12
2019-05-15T04:29:54.787Z,96012.02
2019-05-15T04:32:28.609Z,96135.15
2019-05-15T04:34:59.423Z,96253.91
2019-05-15T04:37:30.030Z,96367.05
2019-05-15T04:40:00.785Z,96465.16
2019-05-15T04:42:31.550Z,96566.95
2019-05-15T04:45:01.849Z,96675.20
2019-05-15T04:47:35.419Z,96791.75
2019-05-15T04:50:08.963Z,96894.39
2019-05-15T04:52:42.421Z,96986.53
2019-05-15T04:55:10.864Z,97104.80
2019-05-15T04:57:41.230Z,97211.26
2019-05-15T05:00:13.222Z,97292.51
2019-05-15T05:02:43.551Z,97425.69
2019-05-15T05:05:14.963Z,97509.40
2019-05-15T05:07:45.319Z,97636.80
2019-05-15T05:10:19.498Z,97771.24
2019-05-15T05:12:50.815Z,97851.44
2019-05-15T05:15:23.348Z,97897.02
2019-05-15T05:17:54.063Z,97980.09
2019-05-15T05:20:25.051Z,98080.63
2019-05-15T05:22:55.343Z,98080.30
2019-05-15T05:25:27.999Z,98138.05
2019-05-15T05:27:58.101Z,98199.20
2019-05-15T05:30:29.870Z,98267.61
2019-05-15T05:33:00.192Z,98333.26
2019-05-15T05:35:30.616Z,98456.78
2019-05-15T05:38:00.963Z,98573.91
2019-05-15T05:40:31.274Z,98613.87
2019-05-15T05:43:01.607Z,98632.84
2019-05-15T05:45:32.902Z,98745.43
2019-05-15T05:48:03.200Z,98831.09
2019-05-15T05:50:44.207Z,98932.45
2019-05-15T05:53:13.784Z,99112.02
2019-05-15T05:55:44.087Z,99490.91
2019-05-15T05:58:14.497Z,99887.59
2019-05-15T06:00:48.898Z,100092.78
2019-05-15T06:03:19.840Z,100439.05
2019-05-15T06:05:52.569Z,100413.37
2019-05-15T06:08:22.842Z,100743.67
2019-05-15T06:10:53.145Z,100995.59
2019-05-15T06:13:25.603Z,100939.88
2019-05-15T06:15:55.892Z,101064.58
2019-05-15T06:18:28.123Z,101166.05
2019-05-15T06:20:58.842Z,101337.52
2019-05-15T06:23:35.109Z,101454.70
2019-05-15T06:26:01.324Z,101454.34
2019-05-15T06:28:33.072Z,101372.45
2019-05-15T06:31:08.564Z,101644.73
2019-05-15T06:33:38.662Z,101554.28
2019-05-15T06:36:09.300Z,101682.28
2019-05-15T06:38:39.697Z,101665.17
2019-05-15T06:41:10.037Z,101403.87
2019-05-15T06:43:40.331Z,101183.44
2019-05-15T06:46:12.929Z,101026.08
2019-05-15T06:48:45.768Z,100881.55
2019-05-15T06:51:18.217Z,100827.90
2019-05-15T06:53:50.781Z,100800.07
2019-05-15T06:56:21.042Z,100615.11
2019-05-15T06:58:51.452Z,100559.56
2019-05-15T07:01:21.842Z,100903.60
2019-05-15T07:03:52.634Z,101087.16
2019-05-15T07:06:22.967Z,101364.22
2019-05-15T07:08:53.324Z,101609.92
2019-05-15T07:11:23.793Z,101419.64
2019-05-15T07:13:54.139Z,101666.44
2019-05-15T07:16:24.872Z,101714.84
2019-05-15T07:18:58.864Z,101686.88
2019-05-15T07:21:31.538Z,101899.81
2019-05-15T07:24:01.855Z,101774.77
2019-05-15T07:26:31.983Z,101696.53
2019-05-15T07:29:07.774Z,101869.97
2019-05-15T07:31:38.457Z,101820.31
2019-05-15T07:34:09.004Z,102112.94
2019-05-15T07:36:39.373Z,102318.20
2019-05-15T07:39:09.953Z,102658.59
2019-05-15T07:41:40.286Z,103049.03
2019-05-15T07:44:10.867Z,103251.25
2019-05-15T07:46:43.515Z,104032.86
2019-05-15T07:49:13.796Z,104172.91
2019-05-15T07:51:48.836Z,104523.73
2019-05-15T07:54:18.947Z,104259.16
2019-05-15T07:56:49.669Z,103913.88
2019-05-15T07:59:20.336Z,103775.26
2019-05-15T08:01:50.601Z,103333.60
2019-05-15T08:04:28.719Z,102990.99
2019-05-15T08:06:59.291Z,102864.09
2019-05-15T08:09:30.505Z,102432.02
2019-05-15T08:12:05.316Z,102457.05
2019-05-15T08:14:38.690Z,102321.04
2019-05-15T08:17:09.878Z,102410.66
2019-05-15T08:19:40.207Z,103293.28
2019-05-15T08:22:11.056Z,103651.39
2019-05-15T08:24:41.401Z,103656.58
2019-05-15T08:27:15.108Z,103964.73
2019-05-15T08:29:45.420Z,104025.92
2019-05-15T08:32:15.770Z,104183.80
2019-05-15T08:34:48.041Z,104495.57
2019-05-15T08:37:18.421Z,104725.77
2019-05-15T08:39:49.347Z,104627.55
2019-05-15T08:42:20.286Z,105004.19
2019-05-15T08:44:50.624Z,105285.59
2019-05-15T08:47:21.394Z,105360.30
2019-05-15T08:49:57.970Z,105053.83
2019-05-15T08:52:30.059Z,104708.00
2019-05-15T08:55:00.433Z,104894.98
2019-05-15T08:57:30.667Z,104568.40
2019-05-15T09:00:02.728Z,104990.42
2019-05-15T09:02:33.447Z,104739.82
2019-05-15T09:05:04.414Z,104697.09
2019-05-15T09:07:34.788Z,104800.23
2019-05-15T09:10:09.039Z,105137.91
2019-05-15T09:12:40.607Z,105523.28
2019-05-15T09:15:19.720Z,105489.12
2019-05-15T09:17:50.059Z,105341.92
2019-05-15T09:20:20.571Z,105576.06
2019-05-15T09:22:53.954Z,105725.47
2019-05-15T09:25:24.324Z,105644.45
2019-05-15T09:27:54.921Z,105522.08
2019-05-15T09:30:25.265Z,105354.22
2019-05-15T09:32:58.827Z,105307.09
2019-05-15T09:35:29.289Z,105404.86
2019-05-15T09:38:00.068Z,105404.86
2019-05-15T09:40:45.216Z,105416.84
2019-05-15T09:43:03.985Z,105416.84
2019-05-15T09:45:34.685Z,105180.81
2019-05-15T09:48:05.260Z,105483.59
2019-05-15T09:50:35.926Z,104954.42
2019-05-15T09:53:09.125Z,104636.70
2019-05-15T09:55:39.001Z,104917.40
2019-05-15T09:58:09.300Z,105344.97
2019-05-15T10:00:40.041Z,105126.59
2019-05-15T10:03:10.334Z,105669.04
2019-05-15T10:05:42.973Z,105329.16
2019-05-15T10:08:13.628Z,105811.44
2019-05-15T10:10:44.300Z,105632.58
2019-05-15T10:13:21.729Z,105490.55
2019-05-15T10:15:53.339Z,105764.89
2019-05-15T10:18:31.244Z,105764.89
2019-05-15T10:21:04.590Z,105680.45
2019-05-15T10:23:40.062Z,105951.12
2019-05-15T10:26:13.847Z,106053.69
2019-05-15T10:28:42.064Z,105956.78
2019-05-15T10:31:15.871Z,106049.19
2019-05-15T10:33:49.156Z,106114.41
2019-05-15T10:36:24.494Z,105987.30
2019-05-15T10:38:59.235Z,105882.22
2019-05-15T10:41:29.761Z,106110.50
2019-05-15T10:44:13.431Z,106103.15
2019-05-15T10:46:48.390Z,105781.84
2019-05-15T10:49:19.092Z,105828.00
2019-05-15T10:51:50.733Z,105871.92
2019-05-15T10:54:22.558Z,106460.90
2019-05-15T10:57:00.417Z,106095.41
2019-05-15T10:59:28.327Z,106138.86
2019-05-15T11:02:00.250Z,105472.30
2019-05-15T11:04:31.000Z,105717.77
2019-05-15T11:07:02.460Z,105755.37
2019-05-15T11:09:37.538Z,105885.76
2019-05-15T11:12:09.558Z,106057.77
2019-05-15T11:14:40.018Z,105989.19
2019-05-15T11:17:10.476Z,106039.93
2019-05-15T11:19:41.008Z,105100.59
2019-05-15T11:22:19.175Z,105374.99
2019-05-15T11:24:54.911Z,106043.73
2019-05-15T11:27:27.966Z,106119.41
2019-05-15T11:30:00.215Z,106360.14
2019-05-15T11:32:30.511Z,105918.12
2019-05-15T11:35:04.130Z,106070.14
2019-05-15T11:37:34.478Z,105940.89
2019-05-15T11:40:05.434Z,105594.16
2019-05-15T11:42:36.163Z,105736.86
2019-05-15T11:45:15.006Z,105478.04
2019-05-15T11:47:45.453Z,105463.55
2019-05-15T11:50:20.548Z,106091.17
2019-05-15T11:52:50.379Z,105622.45
2019-05-15T11:55:21.146Z,105577.31
2019-05-15T11:57:55.720Z,105853.27
2019-05-15T12:00:30.006Z,105032.24
2019-05-15T12:02:59.223Z,105032.24
2019-05-15T12:05:29.513Z,105331.92
2019-05-15T12:07:59.965Z,105124.70
2019-05-15T12:10:30.332Z,105124.70
2019-05-15T12:13:05.131Z,104828.09
2019-05-15T12:15:35.532Z,104846.79
2019-05-15T12:18:08.486Z,105603.10
2019-05-15T12:20:48.904Z,105217.55
2019-05-15T12:23:19.278Z,105026.69
2019-05-15T12:25:53.193Z,105214.42
2019-05-15T12:28:24.367Z,105318.01
2019-05-15T12:30:54.665Z,105221.69
2019-05-15T12:33:24.964Z,105221.69
2019-05-15T12:35:55.687Z,105370.06
2019-05-15T12:38:29.284Z,105067.34
2019-05-15T13:01:25.118Z,104391.51
2019-05-15T13:03:57.950Z,104768.91
2019-05-15T13:06:28.766Z,104799.73
2019-05-15T13:09:02.245Z,104944.66
2019-05-15T13:11:32.650Z,105462.01
2019-05-15T13:14:02.974Z,105698.76
2019-05-15T13:16:34.270Z,105080.87
2019-05-15T13:19:08.323Z,105298.98
2019-05-15T13:21:40.379Z,105607.45
2019-05-15T13:24:10.985Z,105449.06
2019-05-15T13:26:42.845Z,105703.41
2019-05-15T13:29:13.162Z,105106.58
2019-05-15T13:31:43.484Z,104849.41
2019-05-15T13:34:19.737Z,104981.80
2019-05-15T13:36:49.527Z,104585.23
2019-05-15T13:39:20.237Z,104574.31
2019-05-15T13:41:53.641Z,104578.29
2019-05-15T13:44:24.115Z,104612.81
2019-05-15T13:46:58.175Z,104610.21
2019-05-15T13:49:29.382Z,104370.92
2019-05-15T13:52:02.512Z,104244.05
2019-05-15T13:54:37.947Z,103608.72
2019-05-15T13:57:10.806Z,103415.24
2019-05-15T13:59:41.650Z,103569.60
2019-05-15T14:02:11.974Z,103843.66
2019-05-15T14:04:42.303Z,104310.16
2019-05-15T14:07:15.067Z,104558.81
2019-05-15T14:09:59.881Z,104410.66
2019-05-15T14:12:29.516Z,104403.72
2019-05-15T14:14:59.990Z,103990.48
2019-05-15T14:17:32.931Z,104107.04
2019-05-15T14:20:03.820Z,103847.97
2019-05-15T14:22:35.651Z,103958.29
2019-05-15T14:25:08.191Z,104209.58
2019-05-15T14:27:39.946Z,103961.38
2019-05-15T14:30:23.481Z,103647.73
2019-05-15T14:32:54.184Z,103402.62
2019-05-15T14:35:24.763Z,102975.33
2019-05-15T14:38:03.721Z,102984.95
2019-05-15T14:40:29.942Z,103045.05
2019-05-15T14:43:03.250Z,103239.22
2019-05-15T14:45:34.929Z,103448.66
2019-05-15T14:48:05.578Z,103588.64
2019-05-15T14:50:41.739Z,103674.80
2019-05-15T14:53:14.425Z,103669.86
2019-05-15T14:55:44.981Z,103966.44
2019-05-15T14:58:15.609Z,103834.38
2019-05-15T15:00:49.667Z,103703.10
2019-05-15T15:03:24.523Z,103402.83
2019-05-15T15:05:58.196Z,103266.09
2019-05-15T15:08:29.278Z,103237.97
2019-05-15T15:11:00.383Z,103380.98
2019-05-15T15:13:31.308Z,103320.28
2019-05-15T15:16:02.355Z,103112.67
2019-05-15T15:18:34.552Z,103098.87
2019-05-15T15:21:04.875Z,102930.96
2019-05-15T15:23:38.737Z,102871.70
2019-05-15T15:26:09.060Z,102949.69
2019-05-15T15:28:40.223Z,102828.75
2019-05-15T15:31:18.945Z,102634.77
2019-05-15T15:33:51.532Z,102596.86
2019-05-15T15:36:21.847Z,102461.45
2019-05-15T15:38:52.759Z,102192.55
2019-05-15T15:41:23.947Z,101983.67
2019-05-15T15:43:54.678Z,101964.19
2019-05-15T15:46:25.025Z,101995.91
2019-05-15T15:48:55.129Z,102120.53
2019-05-15T15:51:28.587Z,102098.97
2019-05-15T15:53:59.079Z,102004.73
2019-05-15T15:56:29.427Z,101875.95
2019-05-15T15:58:59.828Z,101777.31
2019-05-15T16:01:31.357Z,101656.23
2019-05-15T16:04:03.157Z,101700.85
2019-05-15T16:06:33.492Z,101623.72
2019-05-15T16:09:08.690Z,101664.78
2019-05-15T16:11:39.681Z,101627.83
2019-05-15T16:14:11.498Z,101425.10
2019-05-15T16:16:41.854Z,101298.75
2019-05-15T16:19:12.151Z,101165.53
2019-05-15T16:21:42.815Z,101119.09
2019-05-15T16:24:17.758Z,101073.97
2019-05-15T16:26:49.657Z,100903.33
2019-05-15T16:29:20.492Z,100814.06
2019-05-15T16:31:53.603Z,100893.56
2019-05-15T16:34:28.243Z,100805.65
2019-05-15T16:36:58.549Z,100664.91
2019-05-15T16:39:31.689Z,100513.81
2019-05-15T16:42:06.283Z,100384.86
2019-05-15T16:44:38.395Z,100310.06
2019-05-15T16:47:08.964Z,100183.45
2019-05-15T16:49:39.444Z,100142.31
2019-05-15T16:52:10.037Z,100129.72
2019-05-15T16:54:40.326Z,100042.02
2019-05-15T16:57:15.287Z,99951.70
2019-05-15T16:59:47.881Z,99890.31
2019-05-15T17:02:18.860Z,99840.47
2019-05-15T17:04:49.600Z,99813.82
2019-05-15T17:07:20.046Z,99775.95
2019-05-15T17:10:00.902Z,99727.31
2019-05-15T17:12:31.334Z,99637.88
2019-05-15T17:15:01.668Z,99601.97
2019-05-15T17:17:33.621Z,99563.48
2019-05-15T17:20:04.468Z,99526.66
2019-05-15T17:22:34.765Z,99506.20
2019-05-15T17:25:09.221Z,99467.06
2019-05-15T17:27:40.759Z,99415.53
2019-05-15T17:30:11.103Z,99371.70
2019-05-15T17:32:41.459Z,99311.84
2019-05-15T17:35:12.129Z,99321.88
2019-05-15T17:37:44.184Z,99245.63
2019-05-15T17:40:14.988Z,99214.39
2019-05-15T17:42:45.666Z,99187.50
2019-05-15T17:45:16.330Z,99178.95
2019-05-15T17:47:48.798Z,99103.27
2019-05-15T17:50:22.806Z,99018.79
2019-05-15T17:52:53.103Z,99021.80
2019-05-15T17:55:23.909Z,98953.36
2019-05-15T17:57:58.328Z,98902.00
2019-05-15T18:00:28.622Z,98878.32
2019-05-15T18:02:59.114Z,98850.95
2019-05-15T18:05:31.084Z,98826.28
2019-05-15T18:08:01.365Z,98782.95
2019-05-15T18:10:31.899Z,98762.62
2019-05-15T18:13:04.700Z,98728.94
2019-05-15T18:15:35.195Z,98728.27
2019-05-15T18:18:09.153Z,98664.81
2019-05-15T18:20:40.793Z,98621.00
2019-05-15T18:23:11.092Z,98576.36
2019-05-15T18:25:41.401Z,98515.59
2019-05-15T18:28:11.723Z,98475.83
2019-05-15T18:30:41.952Z,98469.52
2019-05-15T18:33:12.489Z,98403.13
2019-05-15T18:35:44.269Z,98389.33
2019-05-15T18:38:14.559Z,98362.06
2019-05-15T18:40:44.864Z,98295.23
2019-05-15T18:43:15.200Z,98247.05
2019-05-15T18:45:47.766Z,98247.55
2019-05-15T18:48:18.534Z,98204.50
2019-05-15T18:50:49.101Z,98164.98
2019-05-15T18:53:21.737Z,98148.72
2019-05-15T18:55:53.691Z,98099.05
2019-05-15T18:58:24.304Z,98070.02
2019-05-15T19:00:54.843Z,98043.63
2019-05-15T19:03:38.488Z,98022.89
2019-05-15T19:06:09.017Z,98032.34
2019-05-15T19:08:42.639Z,98019.05
2019-05-15T19:11:13.084Z,97983.03
2019-05-15T19:13:48.151Z,97881.53
2019-05-15T19:16:18.546Z,97791.06
2019-05-15T19:18:49.039Z,97736.37
2019-05-15T19:21:19.399Z,97673.78
2019-05-15T19:23:49.794Z,97599.28
2019-05-15T19:26:19.964Z,97522.48
2019-05-15T19:28:50.766Z,97472.88
2019-05-15T19:31:26.764Z,97398.80
2019-05-15T19:33:53.119Z,97359.80
2019-05-15T19:36:23.647Z,97366.75
2019-05-15T19:38:54.342Z,97354.65
2019-05-15T19:41:24.707Z,97286.73
2019-05-15T19:43:58.012Z,97210.41
2019-05-15T19:46:28.276Z,97147.03
2019-05-15T19:49:03.292Z,97095.86
2019-05-15T19:51:38.145Z,97074.73
2019-05-15T19:54:09.178Z,97073.09
2019-05-15T19:56:43.312Z,97072.59
2019-05-15T19:59:13.609Z,97027.38
2019-05-15T20:01:45.505Z,96954.67
2019-05-15T20:04:16.039Z,96941.48
2019-05-15T20:06:48.065Z,96945.77
2019-05-15T20:09:18.417Z,96931.59
2019-05-15T20:12:00.391Z,96887.24
2019-05-15T20:14:30.755Z,96868.78
2019-05-15T20:17:01.408Z,96825.80
2019-05-15T20:19:31.709Z,96761.39
2019-05-15T20:22:02.029Z,96695.01
2019-05-15T20:24:33.714Z,96644.52
2019-05-15T20:27:04.124Z,96588.91
2019-05-15T20:29:34.615Z,96533.81
2019-05-15T20:32:06.109Z,96545.64
2019-05-15T20:34:38.351Z,96500.58
2019-05-15T20:37:09.071Z,96448.97
2019-05-15T20:39:39.418Z,96418.56
2019-05-15T20:42:10.006Z,96374.49
2019-05-15T20:44:40.327Z,96319.47
2019-05-15T20:47:12.512Z,96280.38
2019-05-15T20:49:43.113Z,96318.83
2019-05-15T20:52:18.310Z,96272.20
2019-05-15T20:54:48.097Z,96297.16
2019-05-15T20:57:20.077Z,96265.11
2019-05-15T20:59:50.424Z,96232.33
2019-05-15T21:02:21.322Z,96203.27
2019-05-15T21:04:52.675Z,96161.88
2019-05-15T21:07:35.796Z,96125.48
2019-05-15T21:09:56.022Z,96093.50
2019-05-15T21:12:29.317Z,96060.54
2019-05-15T21:14:58.325Z,96029.25
2019-05-15T21:17:28.650Z,95996.28
2019-05-15T21:20:01.642Z,96002.36
2019-05-15T21:22:33.878Z,96018.91
2019-05-15T21:25:08.097Z,96039.53
2019-05-15T21:27:42.291Z,96040.53
2019-05-15T21:30:11.998Z,96002.05
2019-05-15T21:32:42.599Z,95958.26
2019-05-15T21:35:12.894Z,95927.12
2019-05-15T21:37:43.471Z,95902.88
2019-05-15T21:40:14.333Z,95883.20
2019-05-15T21:42:44.656Z,95890.09
2019-05-15T21:45:18.458Z,95867.32
2019-05-15T21:47:48.810Z,95844.53
2019-05-15T21:50:19.543Z,95823.92
2019-05-15T21:52:51.234Z,95819.34
2019-05-15T21:55:21.546Z,95812.97
2019-05-15T21:57:52.348Z,95778.91
2019-05-15T22:00:31.104Z,95749.27
2019-05-15T22:03:01.401Z,95729.30
2019-05-15T22:05:31.794Z,95738.00
2019-05-15T22:08:03.154Z,95795.12
2019-05-15T22:10:34.266Z,95837.83
2019-05-15T22:13:05.302Z,95820.66
2019-05-15T22:15:35.670Z,95755.84
2019-05-15T22:18:08.691Z,95704.14
2019-05-15T22:20:40.187Z,95682.88
2019-05-15T22:23:10.530Z,95699.89
2019-05-15T22:25:43.676Z,95706.90
2019-05-15T22:28:14.023Z,95696.95
2019-05-15T22:30:44.425Z,95665.55
2019-05-15T22:33:14.725Z,95625.30
2019-05-15T22:35:48.655Z,95586.08
2019-05-15T22:38:18.164Z,95544.85
2019-05-15T22:40:49.165Z,95497.48
2019-05-15T22:43:20.251Z,95474.61
2019-05-15T22:45:50.605Z,95449.27
2019-05-15T22:48:20.855Z,95428.84
2019-05-15T22:50:51.156Z,95419.54
2019-05-15T22:53:21.874Z,95406.98
2019-05-15T22:55:53.185Z,95386.75
2019-05-15T22:58:23.467Z,95370.77
2019-05-15T23:00:53.834Z,95341.32
2019-05-15T23:03:28.181Z,95317.47
2019-05-15T23:05:58.695Z,95308.86
2019-05-15T23:08:29.265Z,95277.72
2019-05-15T23:11:00.246Z,95248.98
2019-05-15T23:13:30.714Z,95233.64
2019-05-15T23:16:01.043Z,95227.77
2019-05-15T23:18:32.375Z,95226.15
2019-05-15T23:21:02.612Z,95226.15
2019-05-15T23:23:33.004Z,95235.76
2019-05-15T23:26:07.657Z,95233.33
2019-05-15T23:28:38.667Z,95207.56
2019-05-15T23:31:09.479Z,95192.72
2019-05-15T23:33:39.791Z,95182.11
2019-05-15T23:36:13.197Z,95166.14
2019-05-15T23:38:47.779Z,95145.60
2019-05-15T23:41:19.102Z,95124.20
2019-05-15T23:43:50.543Z,95111.18
2019-05-15T23:46:21.532Z,95092.61
2019-05-15T23:48:51.835Z,95088.56
2019-05-15T23:51:22.478Z,95065.74
2019-05-15T23:53:52.858Z,95056.95
2019-05-15T23:56:23.161Z,95048.48
2019-05-15T23:58:53.822Z,95069.17
